createdAt,value
2018-03-24T00:00:33.036Z,47.47
2018-03-24T00:02:37.266Z,51.20
2018-03-24T00:04:40.718Z,50.00
2018-03-24T00:06:44.090Z,44.80
2018-03-24T00:08:47.440Z,49.27
2018-03-24T00:10:51.545Z,46.63
2018-03-24T00:12:54.874Z,42.60
2018-03-24T00:14:58.226Z,42.17
2018-03-24T00:17:01.595Z,39.77
2018-03-24T00:19:04.923Z,38.93
2018-03-24T00:21:09.024Z,44.07
2018-03-24T00:23:13.126Z,41.37
2018-03-24T00:25:16.458Z,41.97
2018-03-24T00:27:19.844Z,43.60
2018-03-24T00:29:23.155Z,44.57
2018-03-24T00:31:26.500Z,40.87
2018-03-24T00:33:30.589Z,35.37
2018-03-24T00:35:33.928Z,39.07
2018-03-24T00:37:37.322Z,43.13
2018-03-24T00:39:40.670Z,38.53
2018-03-24T00:41:43.992Z,40.17
2018-03-24T00:43:47.317Z,44.60
2018-03-24T00:45:50.658Z,42.97
2018-03-24T00:47:54.800Z,40.07
2018-03-24T00:49:58.146Z,42.93
2018-03-24T00:52:01.483Z,52.33
2018-03-24T00:54:04.818Z,35.80
2018-03-24T00:56:08.171Z,41.90
2018-03-24T00:58:11.589Z,42.40
2018-03-24T01:00:14.959Z,40.40
2018-03-24T01:02:19.117Z,43.20
2018-03-24T01:04:23.208Z,39.00
2018-03-24T01:06:26.568Z,43.37
2018-03-24T01:08:29.958Z,39.63
2018-03-24T01:10:33.277Z,39.20
2018-03-24T01:12:36.627Z,38.50
2018-03-24T01:14:39.946Z,36.20
2018-03-24T01:16:43.333Z,36.37
2018-03-24T01:18:46.696Z,35.90
2018-03-24T01:20:50.032Z,41.37
2018-03-24T01:22:53.380Z,33.90
2018-03-24T01:24:56.702Z,36.87
2018-03-24T01:27:00.062Z,37.63
2018-03-24T01:29:03.425Z,35.90
2018-03-24T01:31:07.534Z,41.37
2018-03-24T01:33:11.627Z,36.70
2018-03-24T01:35:14.966Z,37.43
2018-03-24T01:37:18.289Z,40.40
2018-03-24T01:39:21.643Z,40.60
2018-03-24T01:41:25.045Z,30.13
2018-03-24T01:43:28.373Z,36.60
2018-03-24T01:45:31.888Z,39.57
2018-03-24T01:47:35.994Z,36.50
2018-03-24T01:49:39.361Z,41.73
2018-03-24T01:51:42.682Z,39.37
2018-03-24T01:53:52.972Z,39.07
2018-03-24T01:55:56.326Z,37.40
2018-03-24T01:57:59.681Z,38.40
2018-03-24T02:00:03.012Z,36.90
2018-03-24T02:02:06.379Z,45.50
2018-03-24T02:04:09.759Z,38.67
2018-03-24T02:06:13.144Z,32.97
2018-03-24T02:08:16.503Z,43.83
2018-03-24T02:10:19.888Z,41.07
2018-03-24T02:12:23.971Z,39.17
2018-03-24T02:14:28.079Z,33.10
2018-03-24T02:16:31.473Z,45.50
2018-03-24T02:18:35.596Z,42.70
2018-03-24T02:20:40.923Z,41.37
2018-03-24T02:22:45.043Z,37.47
2018-03-24T02:24:50.580Z,39.60
2018-03-24T02:26:54.806Z,35.67
2018-03-24T02:28:58.914Z,33.23
2018-03-24T02:31:02.261Z,36.53
2018-03-24T02:33:05.585Z,32.93
2018-03-24T02:35:08.939Z,33.60
2018-03-24T02:37:12.292Z,33.03
2018-03-24T02:39:15.656Z,34.77
2018-03-24T02:41:19.752Z,34.10
2018-03-24T02:43:23.063Z,36.37
2018-03-24T02:45:27.153Z,30.93
2018-03-24T02:47:30.546Z,35.10
2018-03-24T02:49:34.672Z,35.63
2018-03-24T02:51:38.766Z,32.70
2018-03-24T02:53:42.098Z,32.37
2018-03-24T02:55:45.442Z,35.30
2018-03-24T02:57:48.812Z,32.03
2018-03-24T02:59:52.133Z,38.00
2018-03-24T03:01:55.477Z,39.83
2018-03-24T03:03:58.810Z,39.53
2018-03-24T03:06:02.154Z,34.50
2018-03-24T03:08:05.537Z,37.43
2018-03-24T03:10:08.909Z,34.50
2018-03-24T03:12:12.259Z,32.00
2018-03-24T03:14:15.592Z,34.73
2018-03-24T03:16:19.680Z,40.87
2018-03-24T03:18:23.067Z,37.73
2018-03-24T03:20:26.398Z,38.17
2018-03-24T03:22:29.750Z,37.50
2018-03-24T03:24:33.074Z,36.30
2018-03-24T03:26:36.425Z,40.03
2018-03-24T03:28:39.805Z,36.27
2018-03-24T03:30:48.866Z,36.77
2018-03-24T03:32:52.183Z,36.50
2018-03-24T03:34:55.511Z,37.00
2018-03-24T03:36:58.866Z,34.23
2018-03-24T03:39:03.026Z,35.57
2018-03-24T03:41:06.365Z,35.97
2018-03-24T03:43:09.727Z,39.57
2018-03-24T03:45:13.088Z,33.93
2018-03-24T03:47:16.424Z,34.00
2018-03-24T03:49:20.571Z,36.03
2018-03-24T03:51:23.922Z,34.00
2018-03-24T03:53:27.268Z,42.40
2018-03-24T03:55:30.631Z,38.13
2018-03-24T03:57:33.967Z,39.67
2018-03-24T03:59:37.326Z,34.93
2018-03-24T04:01:40.652Z,34.30
2018-03-24T04:03:43.973Z,32.97
2018-03-24T04:05:48.080Z,37.03
2018-03-24T04:07:52.190Z,35.77
2018-03-24T04:09:56.335Z,36.53
2018-03-24T04:11:59.689Z,36.53
2018-03-24T04:14:03.803Z,40.57
2018-03-24T04:16:07.945Z,43.37
2018-03-24T04:18:11.274Z,41.90
2018-03-24T04:20:14.649Z,38.40
2018-03-24T04:22:17.993Z,32.00
2018-03-24T04:24:21.318Z,37.40
2018-03-24T04:26:24.675Z,36.27
2018-03-24T04:28:28.014Z,41.60
2018-03-24T04:30:31.371Z,37.43
2018-03-24T04:32:34.924Z,35.83
2018-03-24T04:34:38.258Z,40.33
2018-03-24T04:36:41.614Z,46.10
2018-03-24T04:38:44.971Z,34.97
2018-03-24T04:40:48.319Z,37.80
2018-03-24T04:42:51.725Z,37.00
2018-03-24T04:44:55.068Z,42.33
2018-03-24T04:46:58.434Z,37.00
2018-03-24T04:49:01.759Z,47.63
2018-03-24T04:51:05.088Z,38.20
2018-03-24T04:53:08.452Z,47.00
2018-03-24T04:55:12.544Z,36.87
2018-03-24T04:57:15.881Z,42.80
2018-03-24T04:59:19.214Z,43.70
2018-03-24T05:01:22.568Z,43.47
2018-03-24T05:03:25.925Z,50.70
2018-03-24T05:05:29.262Z,46.80
2018-03-24T05:07:32.593Z,50.10
2018-03-24T05:09:36.759Z,51.20
2018-03-24T05:11:40.821Z,45.80
2018-03-24T05:13:44.193Z,43.90
2018-03-24T05:15:47.530Z,58.00
2018-03-24T05:17:50.890Z,67.83
2018-03-24T05:19:54.213Z,60.87
2018-03-24T05:21:57.551Z,66.73
2018-03-24T05:24:00.937Z,81.10
2018-03-24T05:26:05.209Z,73.77
2018-03-24T05:28:08.557Z,83.23
2018-03-24T05:30:11.910Z,82.80
2018-03-24T05:32:15.239Z,90.43
2018-03-24T05:34:18.628Z,93.93
2018-03-24T05:36:21.998Z,93.63
2018-03-24T05:38:25.326Z,114.77
2018-03-24T05:40:28.687Z,99.17
2018-03-24T05:42:32.018Z,92.23
2018-03-24T05:44:35.398Z,116.60
2018-03-24T05:46:38.748Z,122.77
2018-03-24T05:48:42.172Z,129.10
2018-03-24T05:50:46.211Z,110.67
2018-03-24T05:52:50.328Z,116.53
2018-03-24T05:54:54.459Z,122.40
2018-03-24T05:56:57.803Z,106.93
2018-03-24T05:59:01.228Z,88.53
2018-03-24T06:01:04.599Z,94.20
2018-03-24T06:03:08.086Z,111.43
2018-03-24T06:05:11.445Z,104.70
2018-03-24T06:07:14.778Z,96.97
2018-03-24T06:09:18.886Z,101.33
2018-03-24T06:11:22.995Z,101.27
2018-03-24T06:13:27.102Z,117.43
2018-03-24T06:15:31.256Z,107.27
2018-03-24T06:17:34.588Z,100.63
2018-03-24T06:19:37.971Z,116.00
2018-03-24T06:21:41.300Z,107.47
2018-03-24T06:23:44.654Z,110.57
2018-03-24T06:25:48.008Z,103.50
2018-03-24T06:27:51.339Z,112.43
2018-03-24T06:29:54.678Z,105.23
2018-03-24T06:32:01.810Z,105.60
2018-03-24T06:34:05.185Z,104.23
2018-03-24T06:36:09.344Z,107.10
2018-03-24T06:38:13.458Z,84.97
2018-03-24T06:40:16.795Z,88.57
2018-03-24T06:42:20.146Z,79.00
2018-03-24T06:44:23.482Z,78.53
2018-03-24T06:46:26.882Z,77.67
2018-03-24T06:48:30.216Z,79.67
2018-03-24T06:50:33.557Z,79.30
2018-03-24T06:52:36.906Z,72.40
2018-03-24T06:54:40.242Z,76.30
2018-03-24T06:56:43.613Z,78.27
2018-03-24T06:58:46.938Z,75.20
2018-03-24T07:00:51.064Z,70.53
2018-03-24T07:02:54.413Z,70.80
2018-03-24T07:04:57.745Z,72.27
2018-03-24T07:07:01.117Z,67.20
2018-03-24T07:09:05.234Z,74.10
2018-03-24T07:11:08.609Z,64.90
2018-03-24T07:13:12.102Z,63.27
2018-03-24T07:15:15.499Z,64.73
2018-03-24T07:17:19.651Z,65.50
2018-03-24T07:19:23.894Z,57.43
2018-03-24T07:21:27.385Z,62.93
2018-03-24T07:23:31.591Z,54.90
2018-03-24T07:25:35.871Z,55.47
2018-03-24T07:27:39.284Z,63.33
2018-03-24T07:29:42.620Z,65.67
2018-03-24T07:31:46.017Z,61.70
2018-03-24T07:33:49.776Z,65.17
2018-03-24T07:35:53.178Z,66.37
2018-03-24T07:37:56.551Z,57.70
2018-03-24T07:40:00.652Z,64.90
2018-03-24T07:42:04.753Z,61.40
2018-03-24T07:44:08.085Z,56.87
2018-03-24T07:46:11.468Z,54.23
2018-03-24T07:48:14.844Z,65.60
2018-03-24T07:50:18.933Z,64.80
2018-03-24T07:52:23.031Z,58.73
2018-03-24T07:54:26.405Z,55.20
2018-03-24T07:56:29.746Z,53.00
2018-03-24T07:58:33.136Z,54.67
2018-03-24T08:00:37.238Z,58.60
2018-03-24T08:02:41.340Z,56.53
2018-03-24T08:04:45.804Z,62.40
2018-03-24T08:06:49.142Z,57.50
2018-03-24T08:08:53.282Z,59.57
2018-03-24T08:10:56.609Z,56.03
2018-03-24T08:12:59.936Z,49.43
2018-03-24T08:15:03.344Z,59.47
2018-03-24T08:17:06.701Z,58.13
2018-03-24T08:19:10.068Z,51.90
2018-03-24T08:21:13.382Z,50.37
2018-03-24T08:23:16.726Z,62.27
2018-03-24T08:25:20.085Z,52.90
2018-03-24T08:27:24.177Z,45.77
2018-03-24T08:29:27.550Z,53.70
2018-03-24T08:31:30.918Z,47.03
2018-03-24T08:33:34.242Z,48.83
2018-03-24T08:35:37.603Z,52.33
2018-03-24T08:37:40.975Z,46.90
2018-03-24T08:39:45.095Z,50.67
2018-03-24T08:41:48.425Z,45.03
2018-03-24T08:43:51.788Z,46.90
2018-03-24T08:45:55.351Z,52.40
2018-03-24T08:47:58.905Z,42.30
2018-03-24T08:50:03.097Z,46.87
2018-03-24T08:52:06.462Z,53.30
2018-03-24T08:54:09.818Z,54.77
2018-03-24T08:56:13.234Z,38.63
2018-03-24T08:58:17.365Z,43.63
2018-03-24T09:00:20.746Z,49.00
2018-03-24T09:02:24.157Z,46.93
2018-03-24T09:04:27.494Z,41.00
2018-03-24T09:06:30.888Z,41.00
2018-03-24T09:08:34.237Z,41.53
2018-03-24T09:10:37.572Z,42.03
2018-03-24T09:12:40.959Z,43.00
2018-03-24T09:14:44.308Z,42.87
2018-03-24T09:16:47.687Z,42.53
2018-03-24T09:18:51.781Z,41.10
2018-03-24T09:20:55.149Z,41.40
2018-03-24T09:22:58.514Z,41.63
2018-03-24T09:25:01.834Z,42.03
2018-03-24T09:27:05.234Z,43.17
2018-03-24T09:29:08.573Z,40.50
2018-03-24T09:31:11.917Z,42.40
2018-03-24T09:33:16.100Z,41.27
2018-03-24T09:35:19.421Z,37.33
2018-03-24T09:37:23.526Z,35.40
2018-03-24T09:39:26.859Z,38.13
2018-03-24T09:41:30.196Z,30.17
2018-03-24T09:43:33.576Z,34.70
2018-03-24T09:45:36.951Z,30.97
2018-03-24T09:47:40.287Z,32.20
2018-03-24T09:49:43.654Z,32.90
2018-03-24T09:51:47.013Z,30.17
2018-03-24T09:53:50.454Z,29.97
2018-03-24T09:55:54.585Z,29.60
2018-03-24T09:57:57.992Z,29.00
2018-03-24T10:00:01.374Z,28.50
2018-03-24T10:02:04.726Z,25.97
2018-03-24T10:04:08.078Z,22.20
2018-03-24T10:06:12.593Z,24.30
2018-03-24T10:08:15.963Z,25.83
2018-03-24T10:10:19.400Z,24.20
2018-03-24T10:12:22.756Z,22.70
2018-03-24T10:14:26.905Z,22.47
2018-03-24T10:16:30.261Z,23.47
2018-03-24T10:18:33.645Z,21.43
2018-03-24T10:23:19.855Z,18.90
2018-03-24T10:25:24.173Z,16.57
2018-03-24T10:27:27.538Z,18.60
2018-03-24T10:29:30.915Z,19.90
2018-03-24T10:31:34.282Z,24.17
2018-03-24T10:33:44.027Z,19.87
2018-03-24T10:35:47.397Z,24.93
2018-03-24T10:37:57.300Z,24.13
2018-03-24T10:40:01.445Z,20.23
2018-03-24T10:42:05.693Z,20.10
2018-03-24T10:44:09.027Z,17.57
2018-03-24T10:46:13.132Z,18.50
2018-03-24T10:48:17.248Z,20.63
2018-03-24T10:50:20.678Z,20.07
2018-03-24T10:52:24.028Z,16.60
2018-03-24T10:54:28.138Z,13.73
2018-03-24T10:56:32.279Z,15.70
2018-03-24T10:58:35.669Z,17.47
2018-03-24T11:00:39.044Z,15.00
2018-03-24T11:02:43.888Z,13.10
2018-03-24T11:04:48.151Z,15.80
2018-03-24T11:06:52.266Z,16.33
2018-03-24T11:08:55.644Z,14.43
2018-03-24T11:10:59.259Z,15.57
2018-03-24T11:13:03.413Z,17.70
2018-03-24T11:15:08.969Z,15.40
2018-03-24T11:17:13.255Z,15.90
2018-03-24T11:19:17.330Z,16.60
2018-03-24T11:21:21.300Z,15.23
2018-03-24T11:23:25.488Z,15.37
2018-03-24T11:25:28.871Z,14.40
2018-03-24T11:27:32.250Z,13.70
2018-03-24T11:29:36.356Z,17.33
2018-03-24T11:31:40.509Z,14.70
2018-03-24T11:33:43.905Z,14.10
2018-03-24T11:35:48.002Z,14.57
2018-03-24T11:37:51.574Z,15.70
2018-03-24T11:39:55.621Z,10.47
2018-03-24T11:41:59.506Z,11.73
2018-03-24T11:44:02.879Z,11.03
2018-03-24T11:46:07.610Z,13.20
2018-03-24T11:48:12.170Z,12.20
2018-03-24T11:50:15.533Z,17.80
2018-03-24T11:52:19.669Z,13.90
2018-03-24T11:54:35.081Z,15.27
2018-03-24T11:56:38.678Z,15.70
2018-03-24T11:58:42.187Z,15.30
2018-03-24T12:00:46.906Z,12.70
2018-03-24T12:02:50.358Z,16.00
2018-03-24T12:04:54.238Z,17.00
2018-03-24T12:06:57.656Z,14.57
2018-03-24T12:09:01.809Z,14.80
2018-03-24T12:11:05.183Z,15.80
2018-03-24T12:13:09.066Z,18.07
2018-03-24T12:15:12.484Z,16.73
2018-03-24T12:17:16.674Z,17.00
2018-03-24T12:19:20.021Z,17.17
2018-03-24T12:21:23.354Z,16.83
2018-03-24T12:23:26.779Z,16.93
2018-03-24T12:25:30.924Z,15.00
2018-03-24T12:27:34.314Z,19.33
2018-03-24T12:29:37.646Z,16.37
2018-03-24T12:31:40.985Z,16.07
2018-03-24T12:33:44.349Z,16.70
2018-03-24T12:35:47.719Z,18.23
2018-03-24T12:37:51.862Z,18.40
2018-03-24T12:39:55.396Z,17.23
2018-03-24T12:41:58.832Z,14.63
2018-03-24T12:44:02.230Z,16.30
2018-03-24T12:46:06.393Z,16.33
2018-03-24T12:48:09.707Z,16.70
2018-03-24T12:50:13.065Z,17.13
2018-03-24T12:52:16.382Z,15.80
2018-03-24T12:54:19.738Z,21.30
2018-03-24T12:56:23.095Z,16.73
2018-03-24T12:58:26.423Z,14.70
2018-03-24T13:00:29.858Z,18.80
2018-03-24T13:02:33.164Z,14.90
2018-03-24T13:04:37.313Z,15.87
2018-03-24T13:06:40.693Z,14.63
2018-03-24T13:08:44.061Z,19.27
2018-03-24T13:10:47.438Z,12.30
2018-03-24T13:12:50.805Z,14.37
2018-03-24T13:14:54.168Z,14.70
2018-03-24T13:16:57.538Z,15.73
2018-03-24T13:19:01.647Z,24.20
2018-03-24T13:21:05.778Z,18.77
2018-03-24T13:23:09.119Z,19.77
2018-03-24T13:25:12.546Z,18.73
2018-03-24T13:27:15.895Z,21.60
2018-03-24T13:29:20.290Z,22.50
2018-03-24T13:31:23.674Z,21.80
2018-03-24T13:33:27.046Z,19.90
2018-03-24T13:35:30.470Z,16.80
2018-03-24T13:37:33.897Z,18.87
2018-03-24T13:39:37.265Z,20.27
2018-03-24T13:41:40.770Z,19.77
2018-03-24T13:43:45.050Z,23.10
2018-03-24T13:45:48.654Z,22.10
2018-03-24T13:47:52.158Z,22.77
2018-03-24T13:49:56.027Z,24.13
2018-03-24T13:51:59.441Z,27.20
2018-03-24T13:54:03.593Z,27.60
2018-03-24T13:56:07.261Z,23.67
2018-03-24T13:58:10.607Z,24.73
2018-03-24T14:00:15.724Z,21.97
2018-03-24T14:02:19.080Z,19.13
2018-03-24T14:04:22.427Z,23.27
2018-03-24T14:06:26.615Z,22.70
2018-03-24T14:08:30.000Z,20.03
2018-03-24T14:10:34.089Z,22.83
2018-03-24T14:12:37.467Z,21.90
2018-03-24T14:14:40.884Z,22.03
2018-03-24T14:16:44.257Z,24.23
2018-03-24T14:18:47.609Z,21.87
2018-03-24T14:20:53.580Z,23.00
2018-03-24T14:22:56.924Z,24.30
2018-03-24T14:25:00.313Z,19.60
2018-03-24T14:27:03.685Z,22.00
2018-03-24T14:29:07.107Z,22.33
2018-03-24T14:31:10.450Z,18.63
2018-03-24T14:33:13.853Z,18.50
2018-03-24T14:35:17.183Z,21.83
2018-03-24T14:37:20.582Z,22.52
2018-03-24T14:39:23.974Z,20.53
2018-03-24T14:41:28.102Z,18.60
2018-03-24T14:43:32.192Z,19.73
2018-03-24T14:45:35.587Z,19.70
2018-03-24T14:47:39.752Z,20.73
2018-03-24T14:49:43.253Z,20.73
2018-03-24T14:51:47.437Z,20.00
2018-03-24T14:53:50.822Z,21.83
2018-03-24T14:55:54.191Z,17.63
2018-03-24T14:57:57.580Z,17.60
2018-03-24T15:00:01.717Z,17.70
2018-03-24T15:02:05.102Z,18.60
2018-03-24T15:04:08.451Z,18.60
2018-03-24T15:06:11.842Z,18.77
2018-03-24T15:08:15.254Z,18.90
2018-03-24T15:10:18.599Z,19.87
2018-03-24T15:12:21.926Z,19.63
2018-03-24T15:14:25.286Z,20.57
2018-03-24T15:16:28.667Z,17.73
2018-03-24T15:18:32.022Z,18.37
2018-03-24T15:20:36.138Z,16.80
2018-03-24T15:22:40.267Z,16.10
2018-03-24T15:24:43.632Z,17.40
2018-03-24T15:26:47.808Z,17.00
2018-03-24T15:29:02.898Z,14.53
2018-03-24T15:31:13.955Z,19.53
2018-03-24T15:33:29.278Z,16.70
2018-03-24T15:35:33.511Z,22.40
2018-03-24T15:37:36.864Z,14.50
2018-03-24T15:39:41.034Z,15.37
2018-03-24T15:41:44.432Z,13.63
2018-03-24T15:43:48.637Z,14.40
2018-03-24T15:45:51.986Z,13.13
2018-03-24T15:47:55.360Z,16.80
2018-03-24T15:49:58.746Z,14.33
2018-03-24T15:52:02.277Z,14.03
2018-03-24T15:54:09.669Z,15.13
2018-03-24T15:56:13.323Z,14.03
2018-03-24T15:58:16.670Z,14.77
2018-03-24T16:00:20.062Z,15.77
2018-03-24T16:02:23.452Z,16.03
2018-03-24T16:04:26.816Z,15.20
2018-03-24T16:06:30.190Z,13.47
2018-03-24T16:08:34.333Z,14.90
2018-03-24T16:10:37.696Z,16.10
2018-03-24T16:12:41.850Z,17.40
2018-03-24T16:14:45.228Z,13.53
2018-03-24T16:16:48.567Z,16.57
2018-03-24T16:18:51.928Z,13.97
2018-03-24T16:20:55.280Z,14.40
2018-03-24T16:22:59.448Z,14.50
2018-03-24T16:25:02.866Z,14.77
2018-03-24T16:27:06.194Z,16.40
2018-03-24T16:29:09.566Z,14.60
2018-03-24T16:31:12.922Z,13.50
2018-03-24T16:33:16.303Z,16.00
2018-03-24T16:35:21.001Z,17.53
2018-03-24T16:37:24.375Z,18.00
2018-03-24T16:39:27.781Z,15.40
2018-03-24T16:41:31.127Z,16.43
2018-03-24T16:43:35.247Z,17.27
2018-03-24T16:45:39.402Z,15.90
2018-03-24T16:47:42.832Z,15.67
2018-03-24T16:49:46.279Z,18.00
2018-03-24T16:51:49.667Z,13.90
2018-03-24T16:53:53.087Z,15.13
2018-03-24T16:55:56.470Z,15.63
2018-03-24T16:57:59.790Z,14.20
2018-03-24T17:00:03.201Z,14.53
2018-03-24T17:02:06.519Z,14.47
2018-03-24T17:04:09.837Z,14.20
2018-03-24T17:06:13.230Z,15.33
2018-03-24T17:08:16.614Z,14.87
2018-03-24T17:10:19.994Z,15.53
2018-03-24T17:12:23.333Z,16.17
2018-03-24T17:14:26.700Z,16.37
2018-03-24T17:16:30.066Z,16.30
2018-03-24T17:18:33.387Z,13.30
2018-03-24T17:20:36.838Z,14.53
2018-03-24T17:22:40.228Z,15.73
2018-03-24T17:24:43.576Z,14.90
2018-03-24T17:26:46.930Z,13.67
2018-03-24T17:28:50.281Z,23.00
2018-03-24T17:30:54.420Z,13.93
2018-03-24T17:32:57.782Z,15.37
2018-03-24T17:35:01.125Z,15.97
2018-03-24T17:37:04.489Z,19.30
2018-03-24T17:39:08.351Z,16.67
2018-03-24T17:41:12.457Z,21.90
2018-03-24T17:43:16.611Z,16.20
2018-03-24T17:45:19.970Z,16.07
2018-03-24T17:47:24.117Z,13.90
2018-03-24T17:49:27.496Z,15.67
2018-03-24T17:51:31.647Z,17.10
2018-03-24T17:53:34.985Z,16.50
2018-03-24T17:55:38.322Z,14.63
2018-03-24T17:57:41.704Z,13.50
2018-03-24T17:59:45.103Z,15.10
2018-03-24T18:01:49.006Z,16.30
2018-03-24T18:03:52.848Z,14.37
2018-03-24T18:05:56.422Z,16.10
2018-03-24T18:07:59.786Z,20.47
2018-03-24T18:10:03.186Z,18.77
2018-03-24T18:12:06.843Z,15.50
2018-03-24T18:14:10.977Z,14.30
2018-03-24T18:16:15.430Z,14.80
2018-03-24T18:18:18.780Z,13.97
2018-03-24T18:20:22.192Z,13.97
2018-03-24T18:22:25.633Z,14.63
2018-03-24T18:24:28.996Z,12.90
2018-03-24T18:26:33.067Z,13.53
2018-03-24T18:28:37.253Z,11.07
2018-03-24T18:30:42.279Z,18.30
2018-03-24T18:32:46.465Z,19.80
2018-03-24T18:34:49.881Z,22.37
2018-03-24T18:36:53.219Z,16.20
2018-03-24T18:38:56.562Z,12.00
2018-03-24T18:40:59.914Z,12.53
2018-03-24T18:43:03.323Z,10.10
2018-03-24T18:45:06.755Z,11.80
2018-03-24T18:47:10.095Z,10.47
2018-03-24T18:49:13.460Z,9.60
2018-03-24T18:51:17.548Z,10.30
2018-03-24T18:53:21.706Z,10.20
2018-03-24T18:55:25.035Z,11.20
2018-03-24T18:57:28.379Z,10.20
2018-03-24T18:59:31.711Z,12.63
2018-03-24T19:01:35.912Z,11.37
2018-03-24T19:03:39.348Z,11.93
2018-03-24T19:05:43.433Z,16.70
2018-03-24T19:07:46.784Z,29.60
2018-03-24T19:09:50.136Z,29.07
2018-03-24T19:11:53.499Z,30.67
2018-03-24T19:13:56.902Z,30.10
2018-03-24T19:18:09.979Z,22.50
2018-03-24T19:20:13.332Z,22.23
2018-03-24T19:22:16.704Z,19.77
2018-03-24T19:24:20.687Z,17.23
2018-03-24T19:26:24.038Z,20.43
2018-03-24T19:28:27.417Z,20.00
2018-03-24T19:30:30.765Z,17.63
2018-03-24T19:32:34.418Z,22.90
2018-03-24T19:34:37.788Z,27.20
2018-03-24T19:36:41.951Z,23.63
2018-03-24T19:38:45.358Z,21.83
2018-03-24T19:40:48.739Z,19.60
2018-03-24T19:42:52.198Z,20.70
2018-03-24T19:44:57.037Z,21.03
2018-03-24T19:47:00.391Z,23.00
2018-03-24T19:49:04.612Z,23.23
2018-03-24T19:51:08.750Z,25.40
2018-03-24T19:53:12.851Z,27.33
2018-03-24T19:55:16.234Z,31.90
2018-03-24T19:57:20.370Z,25.73
2018-03-24T19:59:24.654Z,30.20
2018-03-24T20:01:29.691Z,41.23
2018-03-24T20:03:35.686Z,33.93
2018-03-24T20:05:39.049Z,30.17
2018-03-24T20:07:42.641Z,34.17
2018-03-24T20:09:46.105Z,23.60
2018-03-24T20:11:50.333Z,27.13
2018-03-24T20:13:54.462Z,27.00
2018-03-24T20:15:57.837Z,26.47
2018-03-24T20:18:01.944Z,22.70
2018-03-24T20:20:07.093Z,27.97
2018-03-24T20:22:10.474Z,27.17
2018-03-24T20:24:13.849Z,28.33
2018-03-24T20:26:17.260Z,28.43
2018-03-24T20:28:20.601Z,27.43
2018-03-24T20:30:23.973Z,27.90
2018-03-24T20:32:27.317Z,24.43
2018-03-24T20:34:30.681Z,26.03
2018-03-24T20:36:34.057Z,33.40
2018-03-24T20:38:37.415Z,29.27
2018-03-24T20:42:51.152Z,26.30
2018-03-24T20:44:55.290Z,20.90
2018-03-24T20:46:58.664Z,23.00
2018-03-24T20:49:03.152Z,24.03
2018-03-24T20:51:07.372Z,26.90
2018-03-24T20:53:12.699Z,30.43
2018-03-24T20:55:16.052Z,27.73
2018-03-24T20:57:20.995Z,29.40
2018-03-24T20:59:24.371Z,26.43
2018-03-24T21:01:27.769Z,27.83
2018-03-24T21:03:31.139Z,27.03
2018-03-24T21:05:34.557Z,27.87
2018-03-24T21:07:37.954Z,26.60
2018-03-24T21:09:41.352Z,28.80
2018-03-24T21:11:44.690Z,34.63
2018-03-24T21:13:48.824Z,30.20
2018-03-24T21:15:53.243Z,23.27
2018-03-24T21:17:56.700Z,23.20
2018-03-24T21:20:01.125Z,25.43
2018-03-24T21:22:05.136Z,22.80
2018-03-24T21:24:10.280Z,24.10
2018-03-24T21:26:13.610Z,23.97
2018-03-24T21:28:17.122Z,23.20
2018-03-24T21:30:20.531Z,22.30
2018-03-24T21:32:24.662Z,26.93
2018-03-24T21:34:28.089Z,19.73
2018-03-24T21:36:32.425Z,26.10
2018-03-24T21:38:37.122Z,23.10
2018-03-24T21:40:41.402Z,21.37
2018-03-24T21:42:44.761Z,22.80
2018-03-24T21:44:48.404Z,27.60
2018-03-24T21:46:51.738Z,31.63
2018-03-24T21:48:55.305Z,24.83
2018-03-24T21:50:58.989Z,31.30
2018-03-24T21:53:04.188Z,27.23
2018-03-24T21:55:07.783Z,28.30
2018-03-24T21:57:12.145Z,28.93
2018-03-24T21:59:16.381Z,23.70
2018-03-24T22:01:21.468Z,24.97
2018-03-24T22:03:25.609Z,28.60
2018-03-24T22:05:29.020Z,26.77
2018-03-24T22:07:32.411Z,26.90
2018-03-24T22:09:35.877Z,27.97
2018-03-24T22:11:39.218Z,28.97
2018-03-24T22:13:42.566Z,25.47
2018-03-24T22:15:45.910Z,30.50
2018-03-24T22:17:49.284Z,30.00
2018-03-24T22:19:52.679Z,26.90
2018-03-24T22:21:56.923Z,28.73
2018-03-24T22:24:00.381Z,31.23
2018-03-24T22:26:03.794Z,33.77
2018-03-24T22:28:07.137Z,27.03
2018-03-24T22:30:10.529Z,26.93
2018-03-24T22:32:14.128Z,31.83
2018-03-24T22:34:19.234Z,27.07
2018-03-24T22:36:22.737Z,24.90
2018-03-24T22:38:26.678Z,26.90
2018-03-24T22:40:30.309Z,26.37
2018-03-24T22:42:33.789Z,29.83
2018-03-24T22:44:38.560Z,27.90
2018-03-24T22:46:42.862Z,27.00
2018-03-24T22:48:46.957Z,23.73
2018-03-24T22:50:50.328Z,23.03
2018-03-24T22:52:53.663Z,24.30
2018-03-24T22:54:56.989Z,25.10
2018-03-24T22:57:00.353Z,26.07
2018-03-24T22:59:03.928Z,26.00
2018-03-24T23:01:08.291Z,26.47
2018-03-24T23:03:11.684Z,29.13
2018-03-24T23:05:15.030Z,24.67
2018-03-24T23:07:19.169Z,21.53
2018-03-24T23:09:23.350Z,23.50
2018-03-24T23:11:26.947Z,26.53
2018-03-24T23:13:31.077Z,23.63
2018-03-24T23:15:35.176Z,24.00
2018-03-24T23:17:39.297Z,29.10
2018-03-24T23:19:42.659Z,25.93
2018-03-24T23:21:45.992Z,21.60
2018-03-24T23:23:49.354Z,23.17
2018-03-24T23:25:53.452Z,22.60
2018-03-24T23:27:56.835Z,24.50
2018-03-24T23:30:00.176Z,23.10
2018-03-24T23:32:03.506Z,24.70
2018-03-24T23:34:06.888Z,24.70
2018-03-24T23:36:10.332Z,20.77
2018-03-24T23:38:14.546Z,21.97
2018-03-24T23:40:18.639Z,19.87
2018-03-24T23:42:22.029Z,20.10
2018-03-24T23:44:25.387Z,24.13
2018-03-24T23:46:28.787Z,18.57
2018-03-24T23:48:32.248Z,21.57
2018-03-24T23:50:36.974Z,23.80
2018-03-24T23:52:41.569Z,20.80
2018-03-24T23:54:44.916Z,20.77
2018-03-24T23:56:49.254Z,21.53
2018-03-24T23:58:52.653Z,19.07
